LFBM 181730Z AUTO 29014KT 9999 FEW039 24/15 Q1018 BECMG 23004KT

ElémentsDécodage
LFBM Station météo située sur l'aérodrome de MONT-DE-MARSAN
181730Z émis le 18 du mois à 17h30 UTC
AUTO Bulletin édité par un automate
29014KT vent du 290°, 14 noeuds
9999 visibilité horizontale supérieure à 10 Km
FEW039 nuages rares (1/8 à 2/8) à 3900 pieds
24/15 température 24°C, point de rosée 15°C
 soit une humidité relative de 57%
Q1018 la pression au niveau de la mer (QNH) est de 1018 hPa
BECMG fluctuation du temps prévue
23004KT vent du 230°, 04 noeuds